Time;durP1;ratioP1;P1;durP2;ratioP2;P2;SDS_P1;SDS_P2;PMS_P1;PMS_P2;Temp;Humidity;BMP_temperature;BMP_pressure;BME280_temperature;BME280_humidity;BME280_pressure;Samples;Min_cycle;Max_cycle;Signal;HPM_P1;HPM_P2
2024/01/24 00:02:12;;;;;;;2.70;0.80;;;;;;;9.97;98.35;101036.19;5016577;28;20072;-69
2024/01/24 00:05:15;;;;;;;;;;;;;;;9.99;98.51;101047.44;5016481;28;20566;-69
2024/01/24 00:08:19;;;;;;;3.40;0.60;;;;;;;9.94;98.69;101044.16;5016173;28;20405;-69
2024/01/24 00:11:22;;;;;;;3.40;0.50;;;;;;;9.96;98.87;101042.34;5016107;28;20565;-69
2024/01/24 00:14:25;;;;;;;;;;;;;;;10.01;98.64;101022.09;5016473;28;20069;-69
2024/01/24 00:17:28;;;;;;;2.97;0.47;;;;;;;10.06;98.55;101021.06;5016022;28;20441;-69
2024/01/24 00:20:32;;;;;;;1.35;0.40;;;;;;;10.12;98.17;101020.81;5015848;28;20419;-69
2024/01/24 00:23:35;;;;;;;2.22;0.40;;;;;;;10.18;97.72;101031.00;5015908;28;20070;-69
2024/01/24 00:26:38;;;;;;;;;;;;;;;10.18;97.99;101015.31;5016453;28;20069;-69
2024/01/24 00:29:42;;;;;;;2.55;0.43;;;;;;;10.21;98.17;101002.09;5015750;28;19967;-69
2024/01/24 00:32:45;;;;;;;2.38;1.27;;;;;;;10.29;97.52;101010.50;5015527;28;20044;-69
2024/01/24 00:35:49;;;;;;;3.78;0.68;;;;;;;10.31;97.40;101011.28;5015616;28;20515;-69
2024/01/24 00:38:52;;;;;;;1.40;0.30;;;;;;;10.27;98.01;101009.72;5014344;28;20049;-69
2024/01/24 00:41:58;;;;;;;1.10;0.20;;;;;;;10.25;97.88;100995.84;5015533;28;20514;-69
2024/01/24 00:45:01;;;;;;;1.55;0.47;;;;;;;10.32;98.07;101010.38;5015443;28;20048;-69
2024/01/24 00:48:06;;;;;;;1.77;0.20;;;;;;;10.36;97.90;100982.31;5015455;28;20045;-69
2024/01/24 00:51:09;;;;;;;3.08;0.30;;;;;;;10.46;96.73;100947.88;5015544;28;20099;-69
2024/01/24 00:54:12;;;;;;;1.75;0.30;;;;;;;10.54;96.21;100944.91;5015299;28;20044;-69
2024/01/24 00:57:15;;;;;;;0.77;0.22;;;;;;;10.43;97.05;100955.00;5015236;28;20044;-69
2024/01/24 01:00:19;;;;;;;1.85;0.20;;;;;;;10.42;97.45;100951.53;5015144;28;20045;-69
2024/01/24 01:03:22;;;;;;;2.13;0.68;;;;;;;10.42;97.29;100964.59;5015195;28;20458;-69
2024/01/24 01:06:26;;;;;;;3.95;1.38;;;;;;;10.46;97.58;100979.25;5014837;28;20052;-69
2024/01/24 01:09:29;;;;;;;2.60;1.38;;;;;;;10.49;97.29;100973.03;5015209;28;20461;-69
2024/01/24 01:12:32;;;;;;;1.35;0.30;;;;;;;10.47;97.24;100974.88;5014831;28;20121;-69
2024/01/24 01:15:35;;;;;;;;;;;;;;;10.50;97.15;100960.78;5015597;28;20049;-69
2024/01/24 01:18:38;;;;;;;0.98;0.30;;;;;;;10.57;96.55;100949.16;5015112;28;19919;-69
2024/01/24 01:21:42;;;;;;;2.20;1.00;;;;;;;10.67;96.12;100934.75;5014714;28;20048;-69
2024/01/24 01:24:45;;;;;;;;;;;;;;;10.61;96.69;100946.31;5015305;28;20153;-69
2024/01/24 01:27:48;;;;;;;2.53;1.13;;;;;;;10.69;96.12;100939.00;5014729;28;20016;-69
2024/01/24 01:30:51;;;;;;;2.40;1.00;;;;;;;10.78;95.35;100953.38;5014587;28;20095;-69
2024/01/24 01:33:55;;;;;;;;;;;;;;;10.91;94.79;100932.72;5014928;28;20103;-69
2024/01/24 01:36:58;;;;;;;;;;;;;;;10.93;94.77;100926.50;5014921;28;19920;-69
2024/01/24 01:40:01;;;;;;;1.63;0.50;;;;;;;10.88;94.76;100918.06;5014433;28;19960;-69
2024/01/24 01:43:15;;;;;;;4.00;0.60;;;;;;;10.86;95.64;100913.81;5014380;28;20175;-69
2024/01/24 01:46:18;;;;;;;2.72;1.45;;;;;;;10.95;94.82;100900.28;5014301;28;20056;-69
2024/01/24 01:49:22;;;;;;;1.33;0.50;;;;;;;10.99;95.07;100922.75;5013850;28;20045;-69
2024/01/24 01:52:25;;;;;;;2.00;0.70;;;;;;;11.03;94.86;100894.69;5013531;28;20048;-69
2024/01/24 01:55:29;;;;;;;;;;;;;;;10.96;95.44;100880.22;5014600;28;20120;-69
2024/01/24 01:58:32;;;;;;;3.42;0.40;;;;;;;10.93;95.86;100879.41;5014190;28;19920;-69
2024/01/24 02:01:35;;;;;;;;;;;;;;;11.06;95.13;100884.06;5014410;28;20117;-69
2024/01/24 02:07:56;;;;;;;0.90;0.32;;;;;;;11.09;95.13;100869.06;5234347;23;20054;-67
2024/01/24 02:10:59;;;;;;;1.75;0.30;;;;;;;11.10;95.17;100876.00;4861402;29;20056;-67
2024/01/24 02:14:02;;;;;;;10.45;1.88;;;;;;;11.20;94.60;100886.00;4861077;29;20475;-67
2024/01/24 02:17:06;;;;;;;0.60;0.20;;;;;;;11.18;94.59;100873.84;4861278;29;20133;-67
2024/01/24 02:20:10;;;;;;;1.63;0.20;;;;;;;11.27;94.45;100877.78;4860863;29;20114;-67
2024/01/24 02:23:17;;;;;;;1.52;0.40;;;;;;;11.32;93.76;100907.19;4861235;29;20105;-67
2024/01/24 02:26:20;;;;;;;0.95;0.30;;;;;;;11.36;93.66;100871.25;4860154;29;20043;-66
2024/01/24 02:29:23;;;;;;;;;;;;;;;11.33;94.03;100872.25;4861455;29;20056;-67
2024/01/24 02:32:26;;;;;;;0.57;0.20;;;;;;;11.39;93.52;100881.53;4860443;29;20015;-67
2024/01/24 02:35:29;;;;;;;0.73;0.20;;;;;;;11.47;93.23;100868.09;4860890;29;20602;-67
2024/01/24 02:38:58;;;;;;;1.65;0.15;;;;;;;11.45;93.51;100859.44;4860784;29;20052;-68
2024/01/24 02:42:01;;;;;;;1.25;0.13;;;;;;;11.44;93.92;100847.28;4860782;29;20429;-67
2024/01/24 02:45:58;;;;;;;1.05;0.20;;;;;;;11.45;94.01;100868.16;4860769;29;20060;-68
2024/01/24 02:49:28;;;;;;;0.70;0.22;;;;;;;11.53;93.50;100854.69;4849006;29;20513;-67
2024/01/24 02:52:32;;;;;;;0.68;0.10;;;;;;;11.50;93.72;100852.22;4860344;29;20510;-67
2024/01/24 02:55:39;;;;;;;2.05;0.38;;;;;;;11.58;93.38;100836.94;4860556;29;20419;-67
2024/01/24 02:58:42;;;;;;;;;;;;;;;11.58;93.56;100835.19;4860928;29;20052;-67
2024/01/24 03:01:45;;;;;;;1.77;0.20;;;;;;;11.58;93.99;100831.72;4859543;29;19949;-67
2024/01/24 03:04:48;;;;;;;0.90;0.20;;;;;;;11.57;94.23;100838.72;4859980;29;20140;-67
2024/01/24 03:07:52;;;;;;;0.20;0.10;;;;;;;11.53;94.36;100836.34;4859335;29;20518;-67
2024/01/24 03:10:55;;;;;;;0.93;0.20;;;;;;;11.61;93.91;100807.97;4859761;29;20080;-67
2024/01/24 03:13:58;;;;;;;1.00;0.10;;;;;;;11.63;93.82;100816.63;4841385;29;20109;-67
2024/01/24 03:17:02;;;;;;;0.28;0.03;;;;;;;11.66;93.87;100847.88;4841754;29;20060;-67
2024/01/24 03:20:05;;;;;;;0.88;0.10;;;;;;;11.69;93.82;100826.78;4841952;29;20102;-67
2024/01/24 03:23:09;;;;;;;0.50;0.10;;;;;;;11.68;93.90;100861.75;4830292;29;20066;-67
2024/01/24 03:26:14;;;;;;;0.50;0.10;;;;;;;11.70;93.96;100845.94;4841781;29;20531;-67
2024/01/24 03:29:17;;;;;;;2.22;0.65;;;;;;;11.74;93.81;100860.56;4841747;29;20179;-67
2024/01/24 03:32:20;;;;;;;0.40;0.10;;;;;;;11.79;93.65;100841.06;4842071;29;20125;-67
2024/01/24 03:35:24;;;;;;;1.38;0.30;;;;;;;11.79;93.74;100827.97;4841048;29;20098;-67
2024/01/24 03:38:27;;;;;;;1.02;0.30;;;;;;;11.77;93.65;100845.56;4830190;29;20121;-67
2024/01/24 03:41:30;;;;;;;0.60;0.10;;;;;;;11.83;93.98;100824.25;4841759;29;20166;-67
2024/01/24 03:44:33;;;;;;;0.17;0.10;;;;;;;11.82;93.93;100829.59;4841668;29;20045;-67
2024/01/24 03:47:37;;;;;;;;;;;;;;;11.83;94.37;100819.03;4842448;29;20069;-67
2024/01/24 03:50:40;;;;;;;0.32;0.10;;;;;;;11.76;95.14;100811.59;4841791;29;19922;-67
2024/01/24 03:53:43;;;;;;;;;;;;;;;11.78;95.60;100828.91;4842040;29;20420;-67
2024/01/24 03:56:46;;;;;;;0.40;0.13;;;;;;;11.80;95.67;100818.34;4841724;29;19971;-67
2024/01/24 03:59:49;;;;;;;0.50;0.10;;;;;;;11.83;95.41;100813.78;4841726;29;20525;-67
2024/01/24 04:02:52;;;;;;;;;;;;;;;11.79;95.95;100809.63;4841902;29;20048;-68
2024/01/24 04:05:56;;;;;;;0.80;0.20;;;;;;;11.90;95.65;100805.63;4840910;29;19924;-67
2024/01/24 04:08:59;;;;;;;1.10;0.20;;;;;;;11.82;96.23;100780.66;4841302;29;20115;-67
2024/01/24 04:12:02;;;;;;;;;;;;;;;11.87;96.42;100788.31;4841950;29;20427;-67
2024/01/24 04:15:06;;;;;;;0.63;0.20;;;;;;;11.90;96.24;100800.41;4844939;29;19965;-67
2024/01/24 04:18:10;;;;;;;0.77;0.10;;;;;;;11.96;96.25;100819.25;4844845;29;20072;-68
2024/01/24 04:21:13;;;;;;;0.45;0.17;;;;;;;11.93;96.67;100805.47;4844651;29;20424;-68
2024/01/24 07:44:33;;;;;;;0.50;0.20;;;;;;;12.04;95.81;100929.78;4746553;30;20068;-67
2024/01/24 07:47:58;;;;;;;2.67;0.40;;;;;;;12.22;85.50;100940.22;5610231;24;20095;-67
2024/01/24 07:51:04;;;;;;;4.25;1.55;;;;;;;12.25;79.42;100950.53;4789786;30;20058;-68
2024/01/24 07:54:07;;;;;;;5.45;1.20;;;;;;;12.36;72.54;100939.50;4789417;30;20155;-68
2024/01/24 07:57:10;;;;;;;;;;;;;;;12.30;69.62;100938.91;4789759;30;20127;-68
2024/01/24 08:00:16;;;;;;;6.57;1.00;;;;;;;12.32;65.96;100959.81;4789502;30;19924;-68
2024/01/24 08:03:19;;;;;;;5.68;1.58;;;;;;;12.40;63.31;100943.66;4789420;30;20272;-68
2024/01/24 08:06:22;;;;;;;4.15;1.40;;;;;;;12.39;62.42;100958.56;4789272;30;20053;-68
2024/01/24 08:09:25;;;;;;;;;;;;;;;12.29;63.16;100975.69;4789552;30;20047;-68
2024/01/24 08:12:28;;;;;;;7.85;2.25;;;;;;;12.23;63.03;100953.25;4789551;30;20402;-68
2024/01/24 08:15:32;;;;;;;7.38;2.30;;;;;;;12.26;62.71;100976.69;4789089;30;20416;-68
2024/01/24 08:18:35;;;;;;;6.65;1.38;;;;;;;12.19;63.51;100969.22;4789210;30;20184;-67
2024/01/24 08:21:38;;;;;;;;;;;;;;;12.18;63.30;100965.75;4789818;30;20414;-68
2024/01/24 08:24:44;;;;;;;9.82;1.98;;;;;;;12.11;64.01;100972.25;4789211;30;19948;-68
2024/01/24 08:27:47;;;;;;;6.38;1.40;;;;;;;12.17;64.13;100994.69;4788951;30;20160;-68
2024/01/24 08:30:51;;;;;;;10.25;2.17;;;;;;;12.10;64.08;101000.25;4788815;30;20054;-69
2024/01/24 08:33:54;;;;;;;8.23;1.90;;;;;;;12.16;63.67;100983.34;4788830;30;20582;-68
2024/01/24 08:36:58;;;;;;;7.82;1.60;;;;;;;12.14;64.08;101035.00;4788693;30;20103;-68
2024/01/24 08:40:02;;;;;;;12.18;2.13;;;;;;;12.20;62.94;101012.88;4788743;30;20054;-68
2024/01/24 08:43:05;;;;;;;10.80;2.75;;;;;;;12.18;63.39;101009.47;4788632;30;20062;-68
2024/01/24 08:46:09;;;;;;;;;;;;;;;12.13;63.44;101014.97;4789021;30;20050;-68
2024/01/24 08:49:13;;;;;;;10.77;2.22;;;;;;;12.11;63.09;101032.53;4796418;29;19977;-68
2024/01/24 08:52:16;;;;;;;8.50;2.17;;;;;;;12.12;61.76;101033.38;4806392;29;20049;-68
2024/01/24 08:55:19;;;;;;;;;;;;;;;12.12;60.99;101022.91;4807127;29;20184;-68
2024/01/24 08:58:22;;;;;;;14.53;2.70;;;;;;;12.02;62.00;101018.13;4806500;29;19924;-68
2024/01/24 09:01:25;;;;;;;;;;;;;;;12.04;61.52;101026.75;4806443;29;20143;-68
2024/01/24 09:04:28;;;;;;;19.60;4.13;;;;;;;11.98;62.43;101032.31;4806689;29;19942;-70
2024/01/24 09:07:32;;;;;;;11.23;3.13;;;;;;;12.04;62.83;101067.84;4806149;29;20430;-69
2024/01/24 09:10:36;;;;;;;13.70;2.95;;;;;;;12.04;62.79;101042.47;4806431;29;20046;-68
2024/01/24 09:14:05;;;;;;;16.60;3.30;;;;;;;12.08;62.56;101066.78;4806520;29;20103;-69
2024/01/24 09:17:08;;;;;;;13.73;3.17;;;;;;;12.08;63.19;101082.50;4806255;29;20110;-69
2024/01/24 09:20:11;;;;;;;;;;;;;;;12.12;62.75;101086.66;4806656;29;20070;-69
2024/01/24 09:23:15;;;;;;;19.90;4.05;;;;;;;12.13;61.86;101074.41;4806335;29;19924;-67
2024/01/24 09:26:18;;;;;;;18.95;3.80;;;;;;;12.09;62.34;101081.56;4805909;29;20049;-67
2024/01/24 09:29:21;;;;;;;;;;;;;;;12.06;61.83;101093.06;4806430;29;20057;-66
2024/01/24 09:32:24;;;;;;;18.73;5.03;;;;;;;12.06;61.80;101079.09;4805423;29;19928;-66
2024/01/24 09:35:27;;;;;;;18.48;4.45;;;;;;;12.09;62.14;101076.31;4805965;29;20053;-66
2024/01/24 09:38:32;;;;;;;36.67;27.95;;;;;;;12.08;62.64;101103.47;4794245;29;20090;-66
2024/01/24 09:41:40;;;;;;;18.02;4.18;;;;;;;12.05;61.98;101106.25;4805415;29;20108;-66
2024/01/24 09:44:47;;;;;;;14.98;4.75;;;;;;;12.02;62.63;101106.38;4805692;29;20172;-66
2024/01/24 09:47:51;;;;;;;14.23;4.22;;;;;;;12.03;62.27;101115.97;4805002;29;20133;-66
2024/01/24 09:50:55;;;;;;;21.50;5.80;;;;;;;11.98;62.20;101105.69;4805505;29;20183;-65
2024/01/24 09:54:02;;;;;;;23.42;5.20;;;;;;;11.93;62.48;101106.81;4805131;29;20049;-66
2024/01/24 09:57:06;;;;;;;16.05;4.45;;;;;;;11.91;62.46;101103.44;4805484;29;20413;-66
2024/01/24 10:00:11;;;;;;;20.30;4.78;;;;;;;11.97;62.77;101113.66;4805056;29;20058;-66
2024/01/24 10:03:15;;;;;;;20.35;5.22;;;;;;;12.02;63.22;101122.13;4805350;29;20092;-67
2024/01/24 10:06:18;;;;;;;;;;;;;;;12.01;62.26;101107.31;4805712;29;20320;-66
2024/01/24 10:09:21;;;;;;;23.58;5.38;;;;;;;12.00;62.13;101137.09;4805157;29;19981;-66
2024/01/24 10:12:24;;;;;;;25.73;5.80;;;;;;;11.95;62.13;101107.63;4805054;29;20471;-67
2024/01/24 10:15:29;;;;;;;19.27;7.13;;;;;;;11.98;61.95;101117.94;4805170;29;20573;-67
2024/01/24 10:18:32;;;;;;;24.70;7.00;;;;;;;12.01;61.90;101130.91;4804887;29;20076;-67
2024/01/24 10:21:35;;;;;;;27.25;5.35;;;;;;;11.98;61.59;101131.91;4804680;29;20050;-67
2024/01/24 10:24:40;;;;;;;22.92;8.82;;;;;;;12.00;61.97;101139.69;4804695;29;20425;-67
2024/01/24 10:27:43;;;;;;;21.23;4.95;;;;;;;11.97;61.37;101152.94;4805052;29;20240;-67
2024/01/24 10:30:48;;;;;;;22.75;5.35;;;;;;;12.09;61.37;101149.72;4803971;29;20106;-67
2024/01/24 10:33:55;;;;;;;15.95;5.03;;;;;;;12.08;60.81;101172.47;4803673;29;20574;-67
2024/01/24 10:36:59;;;;;;;17.75;4.97;;;;;;;12.05;60.84;101163.91;4804421;29;20053;-67
2024/01/24 10:40:11;;;;;;;14.65;4.22;;;;;;;12.05;59.65;101143.78;4804470;29;20048;-67
2024/01/24 10:43:19;;;;;;;19.05;5.20;;;;;;;12.13;58.93;101159.16;4804363;29;20100;-67
2024/01/24 10:46:23;;;;;;;23.95;6.10;;;;;;;12.12;58.40;101164.44;4804388;29;20488;-67
2024/01/24 10:49:29;;;;;;;19.98;4.82;;;;;;;12.11;58.69;101179.34;4804106;29;20500;-67
2024/01/24 10:52:35;;;;;;;20.45;5.65;;;;;;;12.09;58.62;101191.66;4804251;29;20089;-67
2024/01/24 10:55:40;;;;;;;18.90;4.97;;;;;;;12.02;58.91;101167.50;4804213;29;20073;-67
2024/01/24 10:58:45;;;;;;;23.73;7.28;;;;;;;12.11;59.71;101179.34;4804325;29;20152;-67
2024/01/24 11:01:48;;;;;;;22.48;6.38;;;;;;;12.02;59.50;101185.84;4804235;29;20057;-67
2024/01/24 11:04:52;;;;;;;;;;;;;;;12.10;59.70;101201.25;4804741;29;20041;-67
2024/01/24 11:08:23;;;;;;;21.23;5.32;;;;;;;12.09;59.33;101187.28;4804461;29;20031;-67
2024/01/24 11:11:31;;;;;;;20.92;6.07;;;;;;;12.10;59.56;101182.88;4793111;29;20459;-67
2024/01/24 11:14:36;;;;;;;20.98;5.95;;;;;;;12.18;59.37;101195.63;4804430;29;20107;-67
2024/01/24 11:17:41;;;;;;;25.00;4.68;;;;;;;12.27;58.47;101216.16;4804149;29;20081;-67
2024/01/24 11:20:47;;;;;;;21.88;5.35;;;;;;;12.23;58.11;101191.84;4804093;29;20103;-67
2024/01/24 11:23:50;;;;;;;21.33;5.63;;;;;;;12.21;57.68;101214.66;4806293;29;20045;-67
2024/01/24 11:26:53;;;;;;;28.27;6.28;;;;;;;12.28;58.34;101197.75;4801103;29;20045;-67
2024/01/24 11:29:57;;;;;;;21.30;4.55;;;;;;;12.27;57.60;101213.53;4807789;29;20054;-67
2024/01/24 11:33:01;;;;;;;22.15;5.47;;;;;;;12.33;57.85;101190.47;4807732;29;20050;-67
2024/01/24 11:36:13;;;;;;;22.58;5.82;;;;;;;12.24;56.86;101201.41;4796788;29;20057;-67
2024/01/24 11:39:30;;;;;;;25.08;6.55;;;;;;;12.28;56.13;101207.34;4808147;29;20516;-67
2024/01/24 11:42:36;;;;;;;24.13;5.35;;;;;;;12.32;55.65;101235.16;4807706;29;20112;-67
2024/01/24 11:45:42;;;;;;;19.55;5.03;;;;;;;12.22;55.17;101221.63;4807769;29;20413;-67
2024/01/24 11:48:45;;;;;;;25.02;6.15;;;;;;;12.30;55.43;101245.69;4807455;29;20115;-67
2024/01/24 11:52:00;;;;;;;25.23;6.07;;;;;;;12.24;55.86;101232.88;4807072;29;20130;-67
2024/01/24 11:55:04;;;;;;;25.38;9.38;;;;;;;12.32;55.87;101243.84;4807298;29;20405;-67
2024/01/24 11:58:07;;;;;;;26.52;11.45;;;;;;;12.28;56.04;101250.19;4807251;29;20098;-67
2024/01/24 12:01:11;;;;;;;;;;;;;;;12.39;55.83;101246.19;4806994;29;20065;-67
2024/01/24 12:04:14;;;;;;;27.85;7.88;;;;;;;12.39;55.52;101256.69;4796259;29;20076;-67
2024/01/24 12:07:18;;;;;;;21.17;5.85;;;;;;;12.29;55.03;101258.91;4807455;29;20097;-67
2024/01/24 12:10:23;;;;;;;22.70;6.72;;;;;;;12.24;55.31;101256.47;4807328;29;20050;-67
2024/01/24 12:13:29;;;;;;;20.10;5.30;;;;;;;12.21;54.85;101280.22;4807527;29;20089;-67
2024/01/24 12:16:32;;;;;;;21.42;5.70;;;;;;;12.21;54.16;101274.97;4806997;29;20061;-67
2024/01/24 12:19:36;;;;;;;19.00;5.05;;;;;;;12.24;53.76;101282.69;4807013;29;20089;-67
2024/01/24 12:22:40;;;;;;;25.08;5.60;;;;;;;12.31;54.16;101291.97;4806721;29;20099;-67
2024/01/24 12:25:45;;;;;;;21.27;4.95;;;;;;;12.37;54.35;101284.75;4807037;29;20073;-68
2024/01/24 12:28:48;;;;;;;22.27;6.60;;;;;;;12.41;53.98;101275.78;4806955;29;20053;-67
2024/01/24 12:31:51;;;;;;;24.35;6.15;;;;;;;12.40;54.09;101263.63;4807117;29;20057;-67
2024/01/24 12:34:54;;;;;;;25.80;6.90;;;;;;;12.50;53.97;101276.19;4806354;29;20428;-67
2024/01/24 12:38:02;;;;;;;19.42;5.68;;;;;;;12.36;53.44;101275.19;4807012;29;20631;-67
2024/01/24 12:41:06;;;;;;;24.65;6.55;;;;;;;12.49;53.62;101273.66;4806505;29;20065;-68
2024/01/24 12:44:09;;;;;;;;;;;;;;;12.56;52.90;101302.13;4806890;29;20574;-66
2024/01/24 12:47:12;;;;;;;23.10;5.88;;;;;;;12.58;52.78;101291.59;4806103;29;19927;-64
2024/01/24 12:50:15;;;;;;;21.48;6.20;;;;;;;12.55;53.05;101295.19;4806008;29;20065;-66
2024/01/24 12:53:20;;;;;;;25.13;6.63;;;;;;;12.62;53.00;101297.53;4806150;29;20106;-66
2024/01/24 12:56:23;;;;;;;26.30;5.57;;;;;;;12.66;53.11;101286.81;4806445;29;20058;-66
2024/01/24 12:59:26;;;;;;;;;;;;;;;12.66;53.29;101288.56;4806463;29;20576;-66
2024/01/24 13:02:29;;;;;;;19.17;4.95;;;;;;;12.41;52.91;101310.75;4806270;29;20004;-66
2024/01/24 13:05:36;;;;;;;26.17;6.28;;;;;;;12.43;53.06;101284.44;4806304;29;20049;-67
2024/01/24 13:08:39;;;;;;;25.83;6.70;;;;;;;12.44;53.46;101286.13;4806845;29;20057;-66
2024/01/24 13:11:44;;;;;;;;;;;;;;;12.48;53.02;101295.59;4807331;29;20062;-67
2024/01/24 13:14:48;;;;;;;28.38;7.07;;;;;;;12.44;53.27;101317.63;4795523;29;19977;-66
2024/01/24 13:17:52;;;;;;;20.88;5.00;;;;;;;12.28;53.42;101318.38;4806430;29;20096;-66
2024/01/24 13:20:56;;;;;;;25.25;6.28;;;;;;;12.26;53.78;101282.63;4806347;29;20058;-66
2024/01/24 13:24:01;;;;;;;26.33;6.18;;;;;;;12.17;54.31;101328.47;4806462;29;20130;-66
2024/01/24 13:27:07;;;;;;;25.45;6.40;;;;;;;12.13;54.13;101282.38;4806625;29;20424;-66
2024/01/24 13:30:13;;;;;;;25.98;5.88;;;;;;;12.24;54.18;101305.44;4805993;29;20061;-66
2024/01/24 13:33:17;;;;;;;26.33;5.10;;;;;;;12.14;54.22;101299.78;4805633;29;20492;-65
2024/01/24 13:36:21;;;;;;;23.35;5.45;;;;;;;12.29;54.25;101322.66;4806360;29;20107;-64
2024/01/24 13:39:25;;;;;;;24.48;5.88;;;;;;;12.24;53.57;101332.50;4802791;29;20109;-65
2024/01/24 13:42:28;;;;;;;24.80;7.07;;;;;;;12.25;53.40;101344.72;4805908;29;20049;-66
2024/01/24 13:45:31;;;;;;;23.90;6.38;;;;;;;12.29;53.89;101316.59;4804807;29;20100;-66
2024/01/24 13:48:35;;;;;;;26.52;6.07;;;;;;;12.30;53.66;101342.72;4805096;29;20073;-67
2024/01/24 13:51:38;;;;;;;26.38;6.30;;;;;;;12.20;54.13;101340.59;4805323;29;20165;-65
2024/01/24 13:54:42;;;;;;;22.80;6.85;;;;;;;12.26;54.12;101337.69;4805312;29;20129;-65
2024/01/24 13:57:45;;;;;;;25.38;7.60;;;;;;;12.30;54.39;101352.38;4805088;29;20128;-65
2024/01/24 14:00:49;;;;;;;27.13;7.72;;;;;;;12.30;54.19;101357.59;4805223;29;20104;-64
2024/01/24 14:03:52;;;;;;;25.20;5.93;;;;;;;12.37;54.10;101342.44;4805347;29;20252;-64
2024/01/24 14:06:55;;;;;;;;;;;;;;;12.25;54.32;101352.59;4805623;29;20103;-65
2024/01/24 14:09:59;;;;;;;25.48;5.47;;;;;;;12.25;54.39;101359.56;4805258;29;19990;-65
2024/01/24 14:13:03;;;;;;;28.75;7.38;;;;;;;12.19;54.78;101360.72;4804751;29;20054;-65
2024/01/24 14:16:06;;;;;;;;;;;;;;;12.44;54.57;101362.19;4805261;29;20082;-65
2024/01/24 14:19:10;;;;;;;30.83;7.88;;;;;;;12.42;54.28;101366.69;4805192;29;19932;-68
2024/01/24 14:22:13;;;;;;;26.77;7.35;;;;;;;12.44;54.17;101370.06;4823265;29;20057;-66
2024/01/24 14:25:17;;;;;;;24.67;6.18;;;;;;;12.43;53.63;101402.47;4823034;29;20145;-67
2024/01/24 14:28:20;;;;;;;21.13;7.05;;;;;;;12.37;53.91;101380.00;4823320;29;20107;-67
2024/01/24 14:31:24;;;;;;;21.15;5.30;;;;;;;12.26;53.34;101385.75;4822224;29;20045;-66
2024/01/24 14:34:27;;;;;;;26.90;6.82;;;;;;;12.42;53.28;101387.66;4822881;29;20433;-66
2024/01/24 14:37:31;;;;;;;25.80;6.18;;;;;;;12.29;53.78;101397.88;4822987;29;20057;-66
2024/01/24 14:40:34;;;;;;;;;;;;;;;12.08;53.90;101391.81;4823370;29;20068;-67
2024/01/24 14:43:37;;;;;;;44.15;8.38;;;;;;;12.03;53.20;101414.78;4822175;29;19923;-67
2024/01/24 14:46:40;;;;;;;24.23;5.90;;;;;;;11.88;53.42;101404.97;4822861;29;20577;-67
2024/01/24 14:49:45;;;;;;;17.70;4.53;;;;;;;11.97;53.37;101408.03;4822618;29;20065;-67
2024/01/24 14:52:48;;;;;;;25.30;6.10;;;;;;;12.09;54.40;101423.22;4822700;29;20130;-67
2024/01/24 14:55:51;;;;;;;;;;;;;;;11.96;54.67;101429.03;4823208;29;20079;-68
2024/01/24 14:58:54;;;;;;;27.60;6.53;;;;;;;11.80;55.40;101434.06;4821748;29;19971;-68
2024/01/24 15:01:58;;;;;;;24.27;6.18;;;;;;;11.78;55.84;101435.91;4823025;29;20168;-68
2024/01/24 15:05:01;;;;;;;24.63;6.28;;;;;;;11.72;56.00;101438.81;4822824;29;20061;-68
2024/01/24 15:08:05;;;;;;;29.40;7.10;;;;;;;11.69;56.17;101459.88;4822422;29;20393;-68
2024/01/24 15:11:08;;;;;;;27.02;7.22;;;;;;;11.68;56.85;101447.69;4822335;29;20103;-68
2024/01/24 15:14:12;;;;;;;26.58;8.23;;;;;;;11.61;56.68;101457.56;4822316;29;20099;-66
2024/01/24 15:17:15;;;;;;;21.30;7.75;;;;;;;11.67;56.93;101457.31;4822620;29;20249;-67
2024/01/24 15:20:19;;;;;;;30.08;7.38;;;;;;;11.61;56.68;101462.81;4822514;29;20049;-67
2024/01/24 15:23:22;;;;;;;;;;;;;;;11.53;57.16;101464.91;4822929;29;20100;-66
2024/01/24 15:26:25;;;;;;;33.10;8.65;;;;;;;11.49;57.60;101468.56;4822658;29;19938;-66
2024/01/24 15:29:29;;;;;;;30.52;11.35;;;;;;;11.46;57.69;101479.19;4822722;29;20195;-69
2024/01/24 15:32:32;;;;;;;31.33;7.93;;;;;;;11.44;57.78;101481.00;4822398;29;20057;-67
2024/01/24 15:35:36;;;;;;;26.08;6.97;;;;;;;11.39;57.83;101487.28;4822281;29;20389;-67
2024/01/24 15:38:39;;;;;;;20.85;6.20;;;;;;;11.34;58.28;101464.81;4821967;29;20234;-67
2024/01/24 15:41:45;;;;;;;24.08;5.60;;;;;;;11.33;58.43;101484.91;4822277;29;20088;-67
2024/01/24 15:44:49;;;;;;;30.63;6.95;;;;;;;11.33;58.42;101477.06;4809978;29;20175;-67
2024/01/24 15:47:52;;;;;;;;;;;;;;;11.29;58.88;101475.44;4811060;29;20080;-67
2024/01/24 15:50:56;;;;;;;16.23;4.90;;;;;;;11.24;58.58;101481.81;4822480;29;20424;-68
2024/01/24 15:53:59;;;;;;;21.50;6.32;;;;;;;11.18;58.32;101485.50;4822589;29;20179;-67
2024/01/24 15:57:06;;;;;;;29.15;7.18;;;;;;;11.15;58.00;101496.09;4821910;29;20103;-67
2024/01/24 16:00:10;;;;;;;24.20;6.45;;;;;;;11.08;58.78;101511.19;4821493;29;20068;-68
2024/01/24 16:03:15;;;;;;;26.63;8.30;;;;;;;11.08;58.61;101499.88;4821679;29;20050;-68
2024/01/24 16:06:22;;;;;;;33.28;11.45;;;;;;;11.04;58.19;101508.72;4821850;29;20524;-67
2024/01/24 16:09:25;;;;;;;29.58;8.35;;;;;;;11.00;58.10;101499.31;4823990;29;20516;-68
2024/01/24 16:12:28;;;;;;;;;;;;;;;10.96;57.55;101521.28;4826969;29;20106;-68
2024/01/24 16:15:32;;;;;;;28.30;7.97;;;;;;;10.97;57.25;101522.97;4826518;29;20294;-67
2024/01/24 16:18:35;;;;;;;;;;;;;;;10.87;57.41;101502.38;4826937;29;20519;-67
2024/01/24 16:21:43;;;;;;;26.42;7.20;;;;;;;10.86;57.50;101518.16;4826727;29;20057;-67
2024/01/24 16:24:47;;;;;;;23.90;5.97;;;;;;;10.80;57.48;101523.63;4826401;29;20477;-67
2024/01/24 16:27:51;;;;;;;23.33;7.68;;;;;;;10.73;57.46;101538.69;4826496;29;20106;-67
2024/01/24 16:30:54;;;;;;;25.58;6.90;;;;;;;10.74;57.65;101550.00;4826249;29;20137;-67
2024/01/24 16:33:57;;;;;;;;;;;;;;;10.74;58.29;101556.06;4826743;29;20100;-67
2024/01/24 16:37:00;;;;;;;25.38;5.85;;;;;;;10.64;58.58;101573.88;4826275;29;19922;-67
2024/01/24 16:40:04;;;;;;;;;;;;;;;10.64;58.44;101575.63;4826575;29;20539;-67
2024/01/24 16:43:09;;;;;;;24.83;6.70;;;;;;;10.68;58.33;101566.75;4826392;29;20037;-66
2024/01/24 16:46:12;;;;;;;25.30;7.50;;;;;;;10.63;58.61;101595.72;4826056;29;20049;-66
2024/01/24 16:49:16;;;;;;;24.75;5.97;;;;;;;10.63;58.99;101584.41;4825762;29;20093;-66
2024/01/24 16:52:22;;;;;;;;;;;;;;;10.63;58.97;101587.03;4815170;29;20599;-66
2024/01/24 16:55:27;;;;;;;30.33;6.70;;;;;;;10.60;58.87;101576.66;4826168;29;19973;-67
2024/01/24 16:58:32;;;;;;;25.83;6.47;;;;;;;10.64;59.54;101584.34;4826173;29;20486;-67
2024/01/24 17:01:35;;;;;;;26.80;5.97;;;;;;;10.60;59.05;101587.97;4824450;29;20061;-66
2024/01/24 17:04:39;;;;;;;34.72;6.78;;;;;;;10.71;59.21;101584.97;4824303;29;20050;-67
2024/01/24 17:07:42;;;;;;;22.00;5.60;;;;;;;10.66;59.75;101586.91;4814642;29;20409;-67
2024/01/24 17:10:45;;;;;;;;;;;;;;;10.76;60.46;101585.66;4826110;29;20113;-67
2024/01/24 17:13:49;;;;;;;28.30;6.32;;;;;;;10.57;59.20;101597.69;4825653;29;19977;-71
2024/01/24 17:16:55;;;;;;;23.13;6.18;;;;;;;10.52;59.10;101599.59;4825302;29;20053;-66
2024/01/24 17:19:59;;;;;;;26.55;6.15;;;;;;;10.45;59.48;101607.66;4825118;29;20101;-66
2024/01/24 17:23:02;;;;;;;;;;;;;;;10.45;59.34;101612.03;4825854;29;20080;-67
2024/01/24 17:26:05;;;;;;;23.33;6.05;;;;;;;10.39;59.85;101620.09;4825406;29;19923;-67
2024/01/24 17:29:09;;;;;;;25.17;5.57;;;;;;;10.30;60.64;101618.63;4825288;29;20054;-66
2024/01/24 17:32:12;;;;;;;28.13;7.45;;;;;;;10.25;60.85;101623.16;4825376;29;20109;-66
2024/01/24 17:35:16;;;;;;;22.33;5.35;;;;;;;10.25;60.75;101629.22;4825353;29;20577;-66
2024/01/24 17:38:19;;;;;;;;;;;;;;;10.27;60.98;101630.94;4825667;29;20461;-65
2024/01/24 17:41:24;;;;;;;24.05;6.07;;;;;;;10.25;60.53;101633.59;4825267;29;20348;-67
2024/01/24 17:44:30;;;;;;;29.70;6.43;;;;;;;10.33;61.37;101644.66;4825077;29;20106;-69
2024/01/24 17:47:33;;;;;;;25.08;6.88;;;;;;;10.15;61.00;101638.28;4825064;29;20053;-68
2024/01/24 17:50:36;;;;;;;27.30;6.00;;;;;;;10.18;61.92;101634.72;4824942;29;20048;-68